Densmore, Kansas
Current Conditions -  °F | °C
As of 4:53 AM on Wednesday 22 Oct 2014 (Local Time) from KHLC Reporting Station
Clear Clear  
Wind Chill: 59°   Ceiling: Unl
Heat Index: 59°   Visibility: 10mi
Dew Point: 51°   Wind: 9mph
Humidity: 75%   Direction: 180°S
Pressure: 29.98"   Gusts: NA
Location:  39.68°N, 99.7571°W
Report Text: KHLC 220953Z AUTO 18008KT 10SM CLR 15/11 A2998 RMK AO2 SLP133 T01500106
Loading
Personal Weather Stations






























Interactive Weather Map
Tropical Storm Tracking
New forecast layout! Learn more

10-Day Weather Forecast

Advertisements
Track Severe Weather on mobile